sensor_id;sensor_type;location;lat;lon;timestamp;P1;durP1;ratioP1;P2;durP2;ratioP2
3597;SDS011;1813;52.016;8.714;2024-02-04T00:00:12;32.13;;;18.27;;
3597;SDS011;1813;52.016;8.714;2024-02-04T00:02:48;31.93;;;17.60;;
3597;SDS011;1813;52.016;8.714;2024-02-04T00:05:21;30.67;;;17.03;;
3597;SDS011;1813;52.016;8.714;2024-02-04T00:07:55;29.80;;;17.63;;
3597;SDS011;1813;52.016;8.714;2024-02-04T00:10:28;31.63;;;16.67;;
3597;SDS011;1813;52.016;8.714;2024-02-04T00:13:05;25.40;;;15.80;;
3597;SDS011;1813;52.016;8.714;2024-02-04T00:15:38;27.60;;;16.90;;
3597;SDS011;1813;52.016;8.714;2024-02-04T00:18:11;26.60;;;15.90;;
3597;SDS011;1813;52.016;8.714;2024-02-04T00:20:45;29.53;;;16.77;;
3597;SDS011;1813;52.016;8.714;2024-02-04T00:23:18;28.97;;;16.20;;
3597;SDS011;1813;52.016;8.714;2024-02-04T00:25:51;25.50;;;16.10;;
3597;SDS011;1813;52.016;8.714;2024-02-04T00:28:27;26.43;;;15.67;;
3597;SDS011;1813;52.016;8.714;2024-02-04T00:31:00;28.63;;;16.03;;
3597;SDS011;1813;52.016;8.714;2024-02-04T00:33:34;29.30;;;14.30;;
3597;SDS011;1813;52.016;8.714;2024-02-04T00:36:07;27.60;;;14.63;;
3597;SDS011;1813;52.016;8.714;2024-02-04T00:38:41;23.30;;;13.97;;
3597;SDS011;1813;52.016;8.714;2024-02-04T00:41:14;21.60;;;13.13;;
3597;SDS011;1813;52.016;8.714;2024-02-04T00:43:50;27.73;;;12.80;;
3597;SDS011;1813;52.016;8.714;2024-02-04T00:46:23;22.13;;;12.70;;
3597;SDS011;1813;52.016;8.714;2024-02-04T00:48:57;23.90;;;12.50;;
3597;SDS011;1813;52.016;8.714;2024-02-04T00:51:30;18.20;;;12.00;;
3597;SDS011;1813;52.016;8.714;2024-02-04T00:54:03;21.63;;;11.73;;
3597;SDS011;1813;52.016;8.714;2024-02-04T00:56:37;19.77;;;10.60;;
3597;SDS011;1813;52.016;8.714;2024-02-04T00:59:14;23.20;;;11.53;;
3597;SDS011;1813;52.016;8.714;2024-02-04T01:01:47;18.37;;;10.97;;
3597;SDS011;1813;52.016;8.714;2024-02-04T01:04:20;16.13;;;10.47;;
3597;SDS011;1813;52.016;8.714;2024-02-04T01:06:54;17.93;;;10.30;;
3597;SDS011;1813;52.016;8.714;2024-02-04T01:09:27;18.60;;;10.40;;
3597;SDS011;1813;52.016;8.714;2024-02-04T01:12:01;17.87;;;9.83;;
3597;SDS011;1813;52.016;8.714;2024-02-04T01:14:37;19.00;;;10.17;;
3597;SDS011;1813;52.016;8.714;2024-02-04T01:17:10;19.50;;;10.50;;
3597;SDS011;1813;52.016;8.714;2024-02-04T01:19:44;18.20;;;10.60;;
3597;SDS011;1813;52.016;8.714;2024-02-04T01:22:17;16.30;;;9.90;;
3597;SDS011;1813;52.016;8.714;2024-02-04T01:24:55;18.90;;;10.47;;
3597;SDS011;1813;52.016;8.714;2024-02-04T01:27:29;23.67;;;9.30;;
3597;SDS011;1813;52.016;8.714;2024-02-04T01:30:06;18.90;;;9.73;;
3597;SDS011;1813;52.016;8.714;2024-02-04T01:32:40;16.00;;;9.73;;
3597;SDS011;1813;52.016;8.714;2024-02-04T01:35:13;19.17;;;10.70;;
3597;SDS011;1813;52.016;8.714;2024-02-04T01:37:47;23.67;;;11.60;;
3597;SDS011;1813;52.016;8.714;2024-02-04T01:40:21;17.97;;;11.20;;
3597;SDS011;1813;52.016;8.714;2024-02-04T01:42:54;26.70;;;12.70;;
3597;SDS011;1813;52.016;8.714;2024-02-04T01:45:30;22.47;;;12.30;;
3597;SDS011;1813;52.016;8.714;2024-02-04T01:48:04;26.13;;;13.13;;
3597;SDS011;1813;52.016;8.714;2024-02-04T01:50:39;24.40;;;13.03;;
3597;SDS011;1813;52.016;8.714;2024-02-04T01:53:12;24.17;;;14.07;;
3597;SDS011;1813;52.016;8.714;2024-02-04T01:55:47;25.43;;;14.63;;
3597;SDS011;1813;52.016;8.714;2024-02-04T01:58:21;24.90;;;13.50;;
3597;SDS011;1813;52.016;8.714;2024-02-04T02:00:58;23.17;;;13.20;;
3597;SDS011;1813;52.016;8.714;2024-02-04T02:03:31;25.30;;;13.73;;
3597;SDS011;1813;52.016;8.714;2024-02-04T02:06:05;25.83;;;14.00;;
3597;SDS011;1813;52.016;8.714;2024-02-04T02:08:39;24.97;;;14.57;;
3597;SDS011;1813;52.016;8.714;2024-02-04T02:11:16;28.03;;;15.57;;
3597;SDS011;1813;52.016;8.714;2024-02-04T02:13:57;32.90;;;17.70;;
3597;SDS011;1813;52.016;8.714;2024-02-04T02:16:36;34.43;;;19.00;;
3597;SDS011;1813;52.016;8.714;2024-02-04T02:19:12;38.80;;;19.70;;
3597;SDS011;1813;52.016;8.714;2024-02-04T02:22:02;48.60;;;23.33;;
3597;SDS011;1813;52.016;8.714;2024-02-04T02:24:50;45.50;;;22.77;;
3597;SDS011;1813;52.016;8.714;2024-02-04T02:27:24;48.97;;;24.00;;
3597;SDS011;1813;52.016;8.714;2024-02-04T02:29:57;44.67;;;23.13;;
3597;SDS011;1813;52.016;8.714;2024-02-04T02:32:31;26.80;;;15.07;;
3597;SDS011;1813;52.016;8.714;2024-02-04T02:35:04;22.50;;;13.03;;
3597;SDS011;1813;52.016;8.714;2024-02-04T02:37:40;20.80;;;11.90;;
3597;SDS011;1813;52.016;8.714;2024-02-04T02:40:19;17.53;;;10.93;;
3597;SDS011;1813;52.016;8.714;2024-02-04T02:42:57;21.10;;;12.27;;
3597;SDS011;1813;52.016;8.714;2024-02-04T02:45:32;21.60;;;12.37;;
3597;SDS011;1813;52.016;8.714;2024-02-04T02:48:07;23.87;;;13.80;;
3597;SDS011;1813;52.016;8.714;2024-02-04T02:50:41;25.90;;;14.37;;
3597;SDS011;1813;52.016;8.714;2024-02-04T02:53:14;29.77;;;16.13;;
3597;SDS011;1813;52.016;8.714;2024-02-04T02:55:52;32.80;;;17.27;;
3597;SDS011;1813;52.016;8.714;2024-02-04T02:58:25;37.97;;;18.60;;
3597;SDS011;1813;52.016;8.714;2024-02-04T03:00:59;39.23;;;19.50;;
3597;SDS011;1813;52.016;8.714;2024-02-04T03:03:32;36.00;;;17.97;;
3597;SDS011;1813;52.016;8.714;2024-02-04T03:06:05;37.63;;;18.23;;
3597;SDS011;1813;52.016;8.714;2024-02-04T03:08:39;37.70;;;18.50;;
3597;SDS011;1813;52.016;8.714;2024-02-04T03:11:15;34.30;;;17.93;;
3597;SDS011;1813;52.016;8.714;2024-02-04T03:13:48;32.80;;;16.70;;
3597;SDS011;1813;52.016;8.714;2024-02-04T03:16:22;33.93;;;15.70;;
3597;SDS011;1813;52.016;8.714;2024-02-04T03:18:55;24.60;;;13.90;;
3597;SDS011;1813;52.016;8.714;2024-02-04T03:21:29;24.13;;;12.20;;
3597;SDS011;1813;52.016;8.714;2024-02-04T03:24:03;22.20;;;11.10;;
3597;SDS011;1813;52.016;8.714;2024-02-04T03:26:39;19.53;;;10.63;;
3597;SDS011;1813;52.016;8.714;2024-02-04T03:29:12;12.37;;;8.80;;
3597;SDS011;1813;52.016;8.714;2024-02-04T03:31:46;11.37;;;8.00;;
3597;SDS011;1813;52.016;8.714;2024-02-04T03:34:19;12.03;;;7.30;;
3597;SDS011;1813;52.016;8.714;2024-02-04T03:36:52;12.07;;;8.10;;
3597;SDS011;1813;52.016;8.714;2024-02-04T03:39:25;11.87;;;7.70;;
3597;SDS011;1813;52.016;8.714;2024-02-04T03:42:01;10.10;;;7.80;;
3597;SDS011;1813;52.016;8.714;2024-02-04T03:44:35;10.13;;;7.67;;
3597;SDS011;1813;52.016;8.714;2024-02-04T03:47:09;12.30;;;8.00;;
3597;SDS011;1813;52.016;8.714;2024-02-04T03:49:42;11.93;;;7.73;;
3597;SDS011;1813;52.016;8.714;2024-02-04T03:52:15;11.27;;;8.43;;
3597;SDS011;1813;52.016;8.714;2024-02-04T03:54:48;11.70;;;8.43;;
3597;SDS011;1813;52.016;8.714;2024-02-04T03:57:24;10.40;;;8.53;;
3597;SDS011;1813;52.016;8.714;2024-02-04T03:59:58;13.57;;;9.40;;
3597;SDS011;1813;52.016;8.714;2024-02-04T04:02:31;13.33;;;9.20;;
3597;SDS011;1813;52.016;8.714;2024-02-04T04:05:05;15.23;;;9.63;;
3597;SDS011;1813;52.016;8.714;2024-02-04T04:07:39;14.87;;;9.40;;
3597;SDS011;1813;52.016;8.714;2024-02-04T04:10:12;13.00;;;9.70;;
3597;SDS011;1813;52.016;8.714;2024-02-04T04:12:49;13.13;;;9.20;;
3597;SDS011;1813;52.016;8.714;2024-02-04T04:15:22;11.87;;;9.17;;
3597;SDS011;1813;52.016;8.714;2024-02-04T04:17:55;14.67;;;9.63;;
3597;SDS011;1813;52.016;8.714;2024-02-04T04:20:28;14.57;;;10.30;;
3597;SDS011;1813;52.016;8.714;2024-02-04T04:23:02;12.97;;;9.83;;
3597;SDS011;1813;52.016;8.714;2024-02-04T04:25:36;11.43;;;8.70;;
3597;SDS011;1813;52.016;8.714;2024-02-04T04:28:11;14.83;;;9.27;;
3597;SDS011;1813;52.016;8.714;2024-02-04T04:30:45;10.33;;;8.70;;
3597;SDS011;1813;52.016;8.714;2024-02-04T04:33:18;10.40;;;8.20;;
3597;SDS011;1813;52.016;8.714;2024-02-04T04:35:52;11.50;;;8.40;;
3597;SDS011;1813;52.016;8.714;2024-02-04T04:38:25;10.43;;;7.43;;
3597;SDS011;1813;52.016;8.714;2024-02-04T04:40:59;10.07;;;7.27;;
3597;SDS011;1813;52.016;8.714;2024-02-04T04:43:36;6.87;;;5.17;;
3597;SDS011;1813;52.016;8.714;2024-02-04T04:46:09;7.10;;;5.50;;
3597;SDS011;1813;52.016;8.714;2024-02-04T04:48:43;6.77;;;4.67;;
3597;SDS011;1813;52.016;8.714;2024-02-04T04:51:16;7.37;;;4.77;;
3597;SDS011;1813;52.016;8.714;2024-02-04T04:53:49;4.40;;;4.00;;
3597;SDS011;1813;52.016;8.714;2024-02-04T04:56:23;6.50;;;4.63;;
3597;SDS011;1813;52.016;8.714;2024-02-04T04:58:58;7.33;;;4.87;;
3597;SDS011;1813;52.016;8.714;2024-02-04T05:01:32;4.50;;;4.10;;
3597;SDS011;1813;52.016;8.714;2024-02-04T05:04:05;4.50;;;4.07;;
3597;SDS011;1813;52.016;8.714;2024-02-04T05:06:38;4.37;;;3.97;;
3597;SDS011;1813;52.016;8.714;2024-02-04T05:09:12;4.70;;;3.70;;
3597;SDS011;1813;52.016;8.714;2024-02-04T05:11:46;5.50;;;3.70;;
3597;SDS011;1813;52.016;8.714;2024-02-04T05:14:22;4.03;;;3.63;;
3597;SDS011;1813;52.016;8.714;2024-02-04T05:16:55;3.70;;;3.40;;
3597;SDS011;1813;52.016;8.714;2024-02-04T05:19:28;4.10;;;3.37;;
3597;SDS011;1813;52.016;8.714;2024-02-04T05:22:02;4.20;;;3.77;;
3597;SDS011;1813;52.016;8.714;2024-02-04T05:24:35;3.50;;;3.20;;
3597;SDS011;1813;52.016;8.714;2024-02-04T05:27:09;3.97;;;3.57;;
3597;SDS011;1813;52.016;8.714;2024-02-04T05:29:45;3.73;;;3.43;;
3597;SDS011;1813;52.016;8.714;2024-02-04T05:32:18;3.70;;;3.40;;
3597;SDS011;1813;52.016;8.714;2024-02-04T05:34:52;3.70;;;3.40;;
3597;SDS011;1813;52.016;8.714;2024-02-04T05:37:25;3.93;;;3.00;;
3597;SDS011;1813;52.016;8.714;2024-02-04T05:39:58;3.80;;;3.50;;
3597;SDS011;1813;52.016;8.714;2024-02-04T05:42:32;4.17;;;3.70;;
3597;SDS011;1813;52.016;8.714;2024-02-04T05:45:08;4.20;;;3.90;;
3597;SDS011;1813;52.016;8.714;2024-02-04T05:47:42;5.30;;;4.30;;
3597;SDS011;1813;52.016;8.714;2024-02-04T05:50:15;4.60;;;4.20;;
3597;SDS011;1813;52.016;8.714;2024-02-04T05:52:49;6.67;;;5.23;;
3597;SDS011;1813;52.016;8.714;2024-02-04T05:55:22;5.80;;;5.20;;
3597;SDS011;1813;52.016;8.714;2024-02-04T05:57:56;5.20;;;4.70;;
3597;SDS011;1813;52.016;8.714;2024-02-04T06:00:31;5.67;;;4.83;;
3597;SDS011;1813;52.016;8.714;2024-02-04T06:03:05;6.87;;;4.97;;
3597;SDS011;1813;52.016;8.714;2024-02-04T06:05:38;5.50;;;4.40;;
3597;SDS011;1813;52.016;8.714;2024-02-04T06:08:11;4.80;;;3.50;;
3597;SDS011;1813;52.016;8.714;2024-02-04T06:10:45;6.40;;;4.57;;
3597;SDS011;1813;52.016;8.714;2024-02-04T06:13:19;3.77;;;3.30;;
3597;SDS011;1813;52.016;8.714;2024-02-04T06:15:55;4.73;;;3.40;;
3597;SDS011;1813;52.016;8.714;2024-02-04T06:18:29;5.20;;;3.50;;
3597;SDS011;1813;52.016;8.714;2024-02-04T06:21:02;4.40;;;3.57;;
3597;SDS011;1813;52.016;8.714;2024-02-04T06:23:37;5.03;;;3.97;;
3597;SDS011;1813;52.016;8.714;2024-02-04T06:26:11;3.87;;;3.57;;
3597;SDS011;1813;52.016;8.714;2024-02-04T06:28:44;7.10;;;4.10;;
3597;SDS011;1813;52.016;8.714;2024-02-04T06:31:21;5.53;;;4.00;;
3597;SDS011;1813;52.016;8.714;2024-02-04T06:33:54;7.20;;;4.27;;
3597;SDS011;1813;52.016;8.714;2024-02-04T06:36:28;4.80;;;4.10;;
3597;SDS011;1813;52.016;8.714;2024-02-04T06:39:01;12.43;;;5.00;;
3597;SDS011;1813;52.016;8.714;2024-02-04T06:41:34;6.60;;;4.80;;
3597;SDS011;1813;52.016;8.714;2024-02-04T06:44:08;7.70;;;5.00;;
3597;SDS011;1813;52.016;8.714;2024-02-04T06:46:44;7.30;;;5.20;;
3597;SDS011;1813;52.016;8.714;2024-02-04T06:49:18;7.70;;;5.00;;
3597;SDS011;1813;52.016;8.714;2024-02-04T06:51:51;6.47;;;5.20;;
3597;SDS011;1813;52.016;8.714;2024-02-04T06:54:26;6.83;;;5.47;;
3597;SDS011;1813;52.016;8.714;2024-02-04T06:57:00;8.10;;;5.23;;
3597;SDS011;1813;52.016;8.714;2024-02-04T06:59:33;7.77;;;5.50;;
3597;SDS011;1813;52.016;8.714;2024-02-04T07:02:09;7.87;;;5.70;;
3597;SDS011;1813;52.016;8.714;2024-02-04T07:04:42;9.93;;;6.13;;
3597;SDS011;1813;52.016;8.714;2024-02-04T07:07:16;7.83;;;6.30;;
3597;SDS011;1813;52.016;8.714;2024-02-04T07:09:49;8.03;;;5.97;;
3597;SDS011;1813;52.016;8.714;2024-02-04T07:12:22;9.53;;;6.13;;
3597;SDS011;1813;52.016;8.714;2024-02-04T07:14:56;9.60;;;5.87;;
3597;SDS011;1813;52.016;8.714;2024-02-04T07:17:32;12.10;;;6.20;;
3597;SDS011;1813;52.016;8.714;2024-02-04T07:20:05;8.63;;;5.93;;
3597;SDS011;1813;52.016;8.714;2024-02-04T07:22:39;9.63;;;6.70;;
3597;SDS011;1813;52.016;8.714;2024-02-04T07:25:13;8.50;;;6.67;;
3597;SDS011;1813;52.016;8.714;2024-02-04T07:27:46;12.47;;;7.60;;
3597;SDS011;1813;52.016;8.714;2024-02-04T07:30:20;13.20;;;8.10;;
3597;SDS011;1813;52.016;8.714;2024-02-04T07:32:56;12.50;;;7.90;;
3597;SDS011;1813;52.016;8.714;2024-02-04T07:35:29;10.63;;;7.97;;
3597;SDS011;1813;52.016;8.714;2024-02-04T07:38:03;13.93;;;8.30;;
3597;SDS011;1813;52.016;8.714;2024-02-04T07:40:36;11.40;;;7.60;;
3597;SDS011;1813;52.016;8.714;2024-02-04T07:43:09;14.93;;;8.27;;
3597;SDS011;1813;52.016;8.714;2024-02-04T07:45:43;11.93;;;7.50;;
3597;SDS011;1813;52.016;8.714;2024-02-04T07:48:19;12.80;;;8.13;;
3597;SDS011;1813;52.016;8.714;2024-02-04T07:50:52;12.23;;;7.80;;
3597;SDS011;1813;52.016;8.714;2024-02-04T07:53:25;17.30;;;8.83;;
3597;SDS011;1813;52.016;8.714;2024-02-04T07:55:59;12.97;;;7.50;;
3597;SDS011;1813;52.016;8.714;2024-02-04T07:58:33;16.40;;;8.93;;
3597;SDS011;1813;52.016;8.714;2024-02-04T08:01:07;17.43;;;8.10;;
3597;SDS011;1813;52.016;8.714;2024-02-04T08:03:43;13.53;;;7.50;;
3597;SDS011;1813;52.016;8.714;2024-02-04T08:06:17;13.80;;;8.27;;
3597;SDS011;1813;52.016;8.714;2024-02-04T08:08:50;10.87;;;7.50;;
3597;SDS011;1813;52.016;8.714;2024-02-04T08:11:23;10.37;;;6.90;;
3597;SDS011;1813;52.016;8.714;2024-02-04T08:13:56;12.33;;;6.37;;
3597;SDS011;1813;52.016;8.714;2024-02-04T08:16:30;8.03;;;4.83;;
3597;SDS011;1813;52.016;8.714;2024-02-04T08:19:06;7.83;;;3.60;;
3597;SDS011;1813;52.016;8.714;2024-02-04T08:21:39;8.33;;;3.70;;
3597;SDS011;1813;52.016;8.714;2024-02-04T08:24:13;6.13;;;2.77;;
3597;SDS011;1813;52.016;8.714;2024-02-04T08:26:46;5.73;;;2.70;;
3597;SDS011;1813;52.016;8.714;2024-02-04T08:29:19;4.10;;;2.87;;
3597;SDS011;1813;52.016;8.714;2024-02-04T08:31:53;13.30;;;2.97;;
3597;SDS011;1813;52.016;8.714;2024-02-04T08:34:29;9.40;;;3.10;;
3597;SDS011;1813;52.016;8.714;2024-02-04T08:37:02;10.43;;;3.60;;
3597;SDS011;1813;52.016;8.714;2024-02-04T08:39:36;7.07;;;3.33;;
3597;SDS011;1813;52.016;8.714;2024-02-04T08:42:09;6.00;;;3.57;;
3597;SDS011;1813;52.016;8.714;2024-02-04T08:44:42;5.90;;;3.20;;
3597;SDS011;1813;52.016;8.714;2024-02-04T08:47:15;8.03;;;2.93;;
3597;SDS011;1813;52.016;8.714;2024-02-04T08:49:52;9.17;;;3.27;;
3597;SDS011;1813;52.016;8.714;2024-02-04T08:52:25;9.50;;;3.83;;
3597;SDS011;1813;52.016;8.714;2024-02-04T08:54:58;11.57;;;3.80;;
3597;SDS011;1813;52.016;8.714;2024-02-04T08:57:34;8.80;;;3.63;;
3597;SDS011;1813;52.016;8.714;2024-02-04T09:00:08;5.00;;;2.63;;
3597;SDS011;1813;52.016;8.714;2024-02-04T09:02:42;6.90;;;3.30;;
3597;SDS011;1813;52.016;8.714;2024-02-04T09:05:19;10.40;;;3.03;;
3597;SDS011;1813;52.016;8.714;2024-02-04T09:07:52;8.20;;;3.60;;
3597;SDS011;1813;52.016;8.714;2024-02-04T09:10:26;9.23;;;3.60;;
3597;SDS011;1813;52.016;8.714;2024-02-04T09:12:59;9.33;;;3.33;;
3597;SDS011;1813;52.016;8.714;2024-02-04T09:15:33;9.57;;;3.43;;
3597;SDS011;1813;52.016;8.714;2024-02-04T09:18:06;7.93;;;3.67;;
3597;SDS011;1813;52.016;8.714;2024-02-04T09:20:42;6.83;;;3.30;;
3597;SDS011;1813;52.016;8.714;2024-02-04T09:23:15;8.80;;;3.10;;
3597;SDS011;1813;52.016;8.714;2024-02-04T09:25:49;10.27;;;3.67;;
3597;SDS011;1813;52.016;8.714;2024-02-04T09:28:22;8.20;;;3.57;;
3597;SDS011;1813;52.016;8.714;2024-02-04T09:30:55;9.00;;;2.80;;
3597;SDS011;1813;52.016;8.714;2024-02-04T09:33:29;14.87;;;3.90;;
3597;SDS011;1813;52.016;8.714;2024-02-04T09:36:05;13.23;;;4.00;;
3597;SDS011;1813;52.016;8.714;2024-02-04T09:38:38;8.60;;;4.00;;
3597;SDS011;1813;52.016;8.714;2024-02-04T09:41:12;8.40;;;3.67;;
3597;SDS011;1813;52.016;8.714;2024-02-04T09:43:45;11.50;;;3.63;;
3597;SDS011;1813;52.016;8.714;2024-02-04T09:46:18;16.57;;;4.00;;
3597;SDS011;1813;52.016;8.714;2024-02-04T09:48:52;16.67;;;4.77;;
3597;SDS011;1813;52.016;8.714;2024-02-04T09:51:30;10.47;;;3.80;;
3597;SDS011;1813;52.016;8.714;2024-02-04T09:54:04;10.83;;;3.50;;
3597;SDS011;1813;52.016;8.714;2024-02-04T09:56:39;10.67;;;3.43;;
3597;SDS011;1813;52.016;8.714;2024-02-04T09:59:13;5.90;;;3.03;;
3597;SDS011;1813;52.016;8.714;2024-02-04T10:01:46;11.40;;;3.93;;
3597;SDS011;1813;52.016;8.714;2024-02-04T10:04:20;5.67;;;2.97;;
3597;SDS011;1813;52.016;8.714;2024-02-04T10:06:56;12.90;;;3.30;;
3597;SDS011;1813;52.016;8.714;2024-02-04T10:09:29;9.93;;;3.60;;
3597;SDS011;1813;52.016;8.714;2024-02-04T10:12:03;10.80;;;4.00;;
3597;SDS011;1813;52.016;8.714;2024-02-04T10:14:38;9.00;;;3.40;;
3597;SDS011;1813;52.016;8.714;2024-02-04T10:17:13;14.23;;;3.30;;
3597;SDS011;1813;52.016;8.714;2024-02-04T10:19:47;6.73;;;3.23;;
3597;SDS011;1813;52.016;8.714;2024-02-04T10:22:25;11.33;;;3.17;;
3597;SDS011;1813;52.016;8.714;2024-02-04T10:25:05;11.30;;;3.37;;
3597;SDS011;1813;52.016;8.714;2024-02-04T10:27:42;9.80;;;3.37;;
3597;SDS011;1813;52.016;8.714;2024-02-04T10:30:18;6.77;;;3.33;;
3597;SDS011;1813;52.016;8.714;2024-02-04T10:32:52;5.23;;;3.10;;
3597;SDS011;1813;52.016;8.714;2024-02-04T10:35:25;12.00;;;4.07;;
3597;SDS011;1813;52.016;8.714;2024-02-04T10:38:01;9.03;;;3.87;;
3597;SDS011;1813;52.016;8.714;2024-02-04T10:40:34;9.77;;;3.97;;
3597;SDS011;1813;52.016;8.714;2024-02-04T10:43:08;10.33;;;3.67;;
3597;SDS011;1813;52.016;8.714;2024-02-04T10:45:42;6.73;;;3.70;;
3597;SDS011;1813;52.016;8.714;2024-02-04T10:48:18;6.90;;;3.53;;
3597;SDS011;1813;52.016;8.714;2024-02-04T10:50:52;7.67;;;3.50;;
3597;SDS011;1813;52.016;8.714;2024-02-04T10:53:32;7.00;;;3.13;;
3597;SDS011;1813;52.016;8.714;2024-02-04T10:56:06;3.93;;;3.03;;
3597;SDS011;1813;52.016;8.714;2024-02-04T10:58:46;4.33;;;3.77;;
3597;SDS011;1813;52.016;8.714;2024-02-04T11:01:20;6.40;;;3.67;;
3597;SDS011;1813;52.016;8.714;2024-02-04T11:03:55;4.77;;;3.73;;
3597;SDS011;1813;52.016;8.714;2024-02-04T11:06:30;5.07;;;3.47;;
3597;SDS011;1813;52.016;8.714;2024-02-04T11:09:07;8.23;;;4.20;;
3597;SDS011;1813;52.016;8.714;2024-02-04T11:11:41;5.03;;;3.63;;
3597;SDS011;1813;52.016;8.714;2024-02-04T11:14:16;6.37;;;4.10;;
3597;SDS011;1813;52.016;8.714;2024-02-04T11:19:57;6.20;;;4.00;;
3597;SDS011;1813;52.016;8.714;2024-02-04T11:22:56;7.00;;;4.27;;
3597;SDS011;1813;52.016;8.714;2024-02-04T11:25:45;8.83;;;4.10;;
3597;SDS011;1813;52.016;8.714;2024-02-04T11:28:22;8.60;;;4.27;;
3597;SDS011;1813;52.016;8.714;2024-02-04T11:30:56;6.80;;;4.10;;
3597;SDS011;1813;52.016;8.714;2024-02-04T11:33:29;5.60;;;4.30;;
3597;SDS011;1813;52.016;8.714;2024-02-04T11:36:04;7.20;;;4.70;;
3597;SDS011;1813;52.016;8.714;2024-02-04T11:38:39;5.67;;;4.30;;
3597;SDS011;1813;52.016;8.714;2024-02-04T11:41:20;6.03;;;4.50;;
3597;SDS011;1813;52.016;8.714;2024-02-04T11:43:55;7.77;;;4.90;;
3597;SDS011;1813;52.016;8.714;2024-02-04T11:46:31;10.20;;;5.40;;
3597;SDS011;1813;52.016;8.714;2024-02-04T11:49:14;7.20;;;5.03;;
3597;SDS011;1813;52.016;8.714;2024-02-04T11:51:48;7.53;;;5.60;;
3597;SDS011;1813;52.016;8.714;2024-02-04T11:54:26;8.63;;;5.73;;
3597;SDS011;1813;52.016;8.714;2024-02-04T11:57:02;6.17;;;5.00;;
3597;SDS011;1813;52.016;8.714;2024-02-04T11:59:36;5.23;;;4.73;;
3597;SDS011;1813;52.016;8.714;2024-02-04T12:02:10;7.43;;;5.00;;
3597;SDS011;1813;52.016;8.714;2024-02-04T12:04:44;7.47;;;5.80;;
3597;SDS011;1813;52.016;8.714;2024-02-04T12:07:18;7.57;;;6.17;;
3597;SDS011;1813;52.016;8.714;2024-02-04T12:09:52;9.43;;;6.17;;
3597;SDS011;1813;52.016;8.714;2024-02-04T12:12:29;15.63;;;7.23;;
3597;SDS011;1813;52.016;8.714;2024-02-04T12:15:03;9.90;;;6.60;;
3597;SDS011;1813;52.016;8.714;2024-02-04T12:17:37;10.53;;;7.50;;
3597;SDS011;1813;52.016;8.714;2024-02-04T12:20:11;10.07;;;7.77;;
3597;SDS011;1813;52.016;8.714;2024-02-04T12:22:45;12.17;;;7.70;;
3597;SDS011;1813;52.016;8.714;2024-02-04T12:25:19;10.50;;;7.93;;
3597;SDS011;1813;52.016;8.714;2024-02-04T12:27:58;12.80;;;7.90;;
3597;SDS011;1813;52.016;8.714;2024-02-04T12:30:32;13.43;;;8.33;;
3597;SDS011;1813;52.016;8.714;2024-02-04T12:33:06;16.20;;;8.83;;
3597;SDS011;1813;52.016;8.714;2024-02-04T12:35:39;18.10;;;10.20;;
3597;SDS011;1813;52.016;8.714;2024-02-04T12:38:13;12.83;;;8.83;;
3597;SDS011;1813;52.016;8.714;2024-02-04T12:40:49;20.03;;;9.30;;
3597;SDS011;1813;52.016;8.714;2024-02-04T12:43:25;13.23;;;8.80;;
3597;SDS011;1813;52.016;8.714;2024-02-04T12:45:58;17.17;;;9.63;;
3597;SDS011;1813;52.016;8.714;2024-02-04T12:48:34;12.10;;;9.50;;
3597;SDS011;1813;52.016;8.714;2024-02-04T12:51:07;12.10;;;8.60;;
3597;SDS011;1813;52.016;8.714;2024-02-04T12:53:41;15.30;;;9.17;;
3597;SDS011;1813;52.016;8.714;2024-02-04T12:56:17;12.77;;;9.00;;
3597;SDS011;1813;52.016;8.714;2024-02-04T12:58:55;16.53;;;7.67;;
3597;SDS011;1813;52.016;8.714;2024-02-04T13:01:28;12.17;;;8.60;;
3597;SDS011;1813;52.016;8.714;2024-02-04T13:04:02;13.40;;;9.40;;
3597;SDS011;1813;52.016;8.714;2024-02-04T13:06:38;15.07;;;9.13;;
3597;SDS011;1813;52.016;8.714;2024-02-04T13:09:13;14.10;;;9.53;;
3597;SDS011;1813;52.016;8.714;2024-02-04T13:11:47;20.70;;;9.33;;
3597;SDS011;1813;52.016;8.714;2024-02-04T13:14:23;12.73;;;9.53;;
3597;SDS011;1813;52.016;8.714;2024-02-04T13:16:56;15.50;;;9.10;;
3597;SDS011;1813;52.016;8.714;2024-02-04T13:19:33;12.37;;;9.10;;
3597;SDS011;1813;52.016;8.714;2024-02-04T13:22:07;10.70;;;9.30;;
3597;SDS011;1813;52.016;8.714;2024-02-04T13:24:41;15.97;;;9.40;;
3597;SDS011;1813;52.016;8.714;2024-02-04T13:27:14;16.03;;;9.63;;
3597;SDS011;1813;52.016;8.714;2024-02-04T13:29:50;11.87;;;8.83;;
3597;SDS011;1813;52.016;8.714;2024-02-04T13:32:23;14.60;;;9.53;;
3597;SDS011;1813;52.016;8.714;2024-02-04T13:34:57;14.47;;;9.90;;
3597;SDS011;1813;52.016;8.714;2024-02-04T13:37:30;12.63;;;9.83;;
3597;SDS011;1813;52.016;8.714;2024-02-04T13:40:04;16.47;;;10.50;;
3597;SDS011;1813;52.016;8.714;2024-02-04T13:42:38;15.40;;;10.53;;
3597;SDS011;1813;52.016;8.714;2024-02-04T13:45:14;15.83;;;10.60;;
3597;SDS011;1813;52.016;8.714;2024-02-04T13:47:47;16.30;;;10.83;;
3597;SDS011;1813;52.016;8.714;2024-02-04T13:50:21;15.40;;;10.50;;
3597;SDS011;1813;52.016;8.714;2024-02-04T13:52:54;17.20;;;11.13;;
3597;SDS011;1813;52.016;8.714;2024-02-04T13:55:29;13.07;;;10.50;;
3597;SDS011;1813;52.016;8.714;2024-02-04T13:58:03;16.50;;;10.37;;
3597;SDS011;1813;52.016;8.714;2024-02-04T14:00:39;17.33;;;11.13;;
3597;SDS011;1813;52.016;8.714;2024-02-04T14:03:12;13.27;;;9.63;;
3597;SDS011;1813;52.016;8.714;2024-02-04T14:05:46;14.63;;;9.00;;
3597;SDS011;1813;52.016;8.714;2024-02-04T14:08:19;11.37;;;8.47;;
3597;SDS011;1813;52.016;8.714;2024-02-04T14:10:53;8.83;;;6.83;;
3597;SDS011;1813;52.016;8.714;2024-02-04T14:13:26;9.43;;;6.90;;
3597;SDS011;1813;52.016;8.714;2024-02-04T14:16:02;11.30;;;6.30;;
3597;SDS011;1813;52.016;8.714;2024-02-04T14:18:37;8.53;;;6.70;;
3597;SDS011;1813;52.016;8.714;2024-02-04T14:21:10;5.97;;;5.40;;
3597;SDS011;1813;52.016;8.714;2024-02-04T14:23:44;9.60;;;5.20;;
3597;SDS011;1813;52.016;8.714;2024-02-04T14:26:18;8.83;;;4.60;;
3597;SDS011;1813;52.016;8.714;2024-02-04T14:28:51;8.07;;;4.10;;
3597;SDS011;1813;52.016;8.714;2024-02-04T14:31:27;5.00;;;3.90;;
3597;SDS011;1813;52.016;8.714;2024-02-04T14:34:00;7.30;;;4.20;;
3597;SDS011;1813;52.016;8.714;2024-02-04T14:36:34;6.70;;;3.90;;
3597;SDS011;1813;52.016;8.714;2024-02-04T14:39:07;4.77;;;4.30;;
3597;SDS011;1813;52.016;8.714;2024-02-04T14:41:41;6.93;;;3.73;;
3597;SDS011;1813;52.016;8.714;2024-02-04T14:44:14;7.93;;;3.47;;
3597;SDS011;1813;52.016;8.714;2024-02-04T14:46:50;5.47;;;3.60;;
3597;SDS011;1813;52.016;8.714;2024-02-04T14:49:23;3.83;;;3.43;;
3597;SDS011;1813;52.016;8.714;2024-02-04T14:51:57;5.47;;;3.77;;
3597;SDS011;1813;52.016;8.714;2024-02-04T14:54:30;4.00;;;3.63;;
3597;SDS011;1813;52.016;8.714;2024-02-04T14:57:05;4.67;;;4.10;;
3597;SDS011;1813;52.016;8.714;2024-02-04T14:59:38;5.17;;;4.33;;
3597;SDS011;1813;52.016;8.714;2024-02-04T15:02:15;6.23;;;4.00;;
3597;SDS011;1813;52.016;8.714;2024-02-04T15:04:49;7.03;;;4.47;;
3597;SDS011;1813;52.016;8.714;2024-02-04T15:07:23;7.90;;;4.23;;
3597;SDS011;1813;52.016;8.714;2024-02-04T15:09:57;5.90;;;4.30;;
3597;SDS011;1813;52.016;8.714;2024-02-04T15:12:30;6.83;;;4.20;;
3597;SDS011;1813;52.016;8.714;2024-02-04T15:15:05;5.20;;;4.70;;
3597;SDS011;1813;52.016;8.714;2024-02-04T15:17:43;7.80;;;5.20;;
3597;SDS011;1813;52.016;8.714;2024-02-04T15:20:17;5.83;;;5.07;;
3597;SDS011;1813;52.016;8.714;2024-02-04T15:22:53;6.93;;;5.43;;
3597;SDS011;1813;52.016;8.714;2024-02-04T15:25:30;8.33;;;5.20;;
3597;SDS011;1813;52.016;8.714;2024-02-04T15:28:04;8.57;;;5.60;;
3597;SDS011;1813;52.016;8.714;2024-02-04T15:30:38;7.17;;;5.60;;
3597;SDS011;1813;52.016;8.714;2024-02-04T15:33:15;7.40;;;5.63;;
3597;SDS011;1813;52.016;8.714;2024-02-04T15:35:49;8.10;;;5.40;;
3597;SDS011;1813;52.016;8.714;2024-02-04T15:38:22;10.60;;;8.33;;
3597;SDS011;1813;52.016;8.714;2024-02-04T15:40:56;9.97;;;6.43;;
3597;SDS011;1813;52.016;8.714;2024-02-04T15:43:30;7.60;;;6.20;;
3597;SDS011;1813;52.016;8.714;2024-02-04T15:46:05;6.50;;;5.90;;
3597;SDS011;1813;52.016;8.714;2024-02-04T15:48:43;7.97;;;6.87;;
3597;SDS011;1813;52.016;8.714;2024-02-04T15:51:19;8.83;;;6.40;;